createdAt,value
2019-01-30T00:00:41.447Z,78.85
2019-01-30T00:01:41.363Z,78.87
2019-01-30T00:02:41.140Z,78.87
2019-01-30T00:03:41.123Z,78.88
2019-01-30T00:04:41.290Z,78.9
2019-01-30T00:05:41.215Z,78.7
2019-01-30T00:06:41.278Z,78.83
2019-01-30T00:07:41.175Z,78.72
2019-01-30T00:08:41.183Z,78.71
2019-01-30T00:09:41.209Z,78.58
2019-01-30T00:10:41.278Z,78.51
2019-01-30T00:11:41.205Z,78.58
2019-01-30T00:12:41.433Z,78.54
2019-01-30T00:13:41.628Z,78.48
2019-01-30T00:14:41.277Z,78.5
2019-01-30T00:15:41.145Z,78.7
2019-01-30T00:16:41.289Z,78.71
2019-01-30T00:17:41.491Z,78.57
2019-01-30T00:18:41.092Z,78.36
2019-01-30T00:19:41.100Z,78.34
2019-01-30T00:20:41.577Z,78.53
2019-01-30T00:21:41.073Z,78.34
2019-01-30T00:22:41.334Z,78.44
2019-01-30T00:23:41.181Z,78.47
2019-01-30T00:24:41.182Z,78.19
2019-01-30T00:25:41.218Z,78.39
2019-01-30T00:26:41.092Z,78.16
2019-01-30T00:27:41.128Z,78.17
2019-01-30T00:28:41.158Z,78.35
2019-01-30T00:29:41.083Z,78.4
2019-01-30T00:30:41.171Z,78.48
2019-01-30T00:31:41.161Z,78.2
2019-01-30T00:32:41.177Z,78.31
2019-01-30T00:33:41.496Z,78.13
2019-01-30T00:34:41.248Z,78.17
2019-01-30T00:35:41.226Z,77.98
2019-01-30T00:36:41.222Z,77.84
2019-01-30T00:37:41.271Z,77.97
2019-01-30T00:38:42.906Z,78.12
2019-01-30T00:39:41.593Z,77.95
2019-01-30T00:40:41.649Z,78.02
2019-01-30T00:41:41.062Z,78.39
2019-01-30T00:42:41.211Z,78.11
2019-01-30T00:43:41.322Z,78.3
2019-01-30T00:44:41.610Z,78.22
2019-01-30T00:45:41.449Z,77.83
2019-01-30T00:46:41.071Z,77.98
2019-01-30T00:47:41.376Z,78.05
2019-01-30T00:48:41.471Z,78.17
2019-01-30T00:49:41.368Z,77.98
2019-01-30T00:50:42.884Z,78.03
2019-01-30T00:51:42.052Z,77.89
2019-01-30T00:52:41.722Z,77.98
2019-01-30T00:53:41.180Z,77.77
2019-01-30T00:54:42.882Z,78.02
2019-01-30T00:55:41.338Z,77.93
2019-01-30T00:56:41.619Z,77.89
2019-01-30T00:57:41.308Z,78.25
2019-01-30T00:58:41.086Z,78.37
2019-01-30T00:59:41.551Z,77.99
2019-01-30T01:00:41.788Z,78.09
2019-01-30T01:01:41.180Z,77.91
2019-01-30T01:02:41.042Z,78.2
2019-01-30T01:03:41.021Z,78.13
2019-01-30T01:04:41.590Z,78.01
2019-01-30T01:05:41.076Z,77.86
2019-01-30T01:06:41.270Z,78.02
2019-01-30T01:07:41.407Z,77.97
2019-01-30T01:08:41.294Z,77.96
2019-01-30T01:09:41.073Z,78.06
2019-01-30T01:10:41.317Z,78.12
2019-01-30T01:11:41.317Z,78.06
2019-01-30T01:12:41.111Z,78.04
2019-01-30T01:13:41.034Z,78.05
2019-01-30T01:14:41.342Z,77.98
2019-01-30T01:15:41.137Z,78.02
2019-01-30T01:16:41.478Z,78.13
2019-01-30T01:17:41.056Z,78.19
2019-01-30T01:18:41.271Z,78.15
2019-01-30T01:19:41.079Z,78.19
2019-01-30T01:20:41.501Z,78.16
2019-01-30T01:21:41.806Z,78.16
2019-01-30T01:22:41.052Z,78.21
2019-01-30T01:23:41.129Z,78.34
2019-01-30T01:24:41.520Z,78.33
2019-01-30T01:25:41.314Z,78.03
2019-01-30T01:26:41.199Z,77.76
2019-01-30T01:27:41.028Z,77.85
2019-01-30T01:28:41.323Z,77.95
2019-01-30T01:29:41.459Z,78.16
2019-01-30T01:30:41.111Z,78.12
2019-01-30T01:31:41.051Z,78.12
2019-01-30T01:32:41.301Z,78.04
2019-01-30T01:33:41.280Z,77.91
2019-01-30T01:34:41.171Z,78
2019-01-30T01:35:41.016Z,77.67
2019-01-30T01:36:41.160Z,77.87
2019-01-30T01:37:41.033Z,78.08
2019-01-30T01:38:41.066Z,77.62
2019-01-30T01:39:41.014Z,77.76
2019-01-30T01:40:41.300Z,77.73
2019-01-30T01:41:41.314Z,77.68
2019-01-30T01:42:41.106Z,77.56
2019-01-30T01:43:41.228Z,77.78
2019-01-30T01:44:41.230Z,77.59
2019-01-30T01:45:41.040Z,77.76
2019-01-30T01:46:41.247Z,77.64
2019-01-30T01:47:41.464Z,77.64
2019-01-30T01:48:41.265Z,77.6
2019-01-30T01:49:40.989Z,77.5
2019-01-30T01:50:41.124Z,77.62
2019-01-30T01:51:41.599Z,77.51
2019-01-30T01:52:41.188Z,77.71
2019-01-30T01:53:41.016Z,77.69
2019-01-30T01:54:41.332Z,77.61
2019-01-30T01:55:40.953Z,77.33
2019-01-30T01:56:41.063Z,77.5
2019-01-30T01:57:40.993Z,77.26
2019-01-30T01:58:41.873Z,77.04
2019-01-30T01:59:41.059Z,77.27
2019-01-30T02:00:41.070Z,77.26
2019-01-30T02:01:41.070Z,77.05
2019-01-30T02:02:41.113Z,77
2019-01-30T02:03:41.097Z,77.33
2019-01-30T02:04:41.468Z,77.1
2019-01-30T02:05:41.099Z,76.79
2019-01-30T02:06:41.189Z,77
2019-01-30T02:07:41.037Z,76.88
2019-01-30T02:08:41.200Z,77.11
2019-01-30T02:09:41.119Z,77.08
2019-01-30T02:10:40.984Z,76.77
2019-01-30T02:11:41.640Z,76.87
2019-01-30T02:12:41.045Z,76.93
2019-01-30T02:13:41.011Z,76.91
2019-01-30T02:14:41.012Z,76.96
2019-01-30T02:15:41.492Z,77.03
2019-01-30T02:16:41.000Z,77.07
2019-01-30T02:17:41.055Z,77.12
2019-01-30T02:18:40.912Z,76.86
2019-01-30T02:19:41.029Z,76.7
2019-01-30T02:20:41.171Z,76.49
2019-01-30T02:21:41.077Z,76.69
2019-01-30T02:22:41.207Z,76.87
2019-01-30T02:23:41.029Z,76.64
2019-01-30T02:24:41.088Z,76.83
2019-01-30T02:25:41.003Z,76.53
2019-01-30T02:26:41.327Z,76.37
2019-01-30T02:27:40.914Z,76.75
2019-01-30T02:28:41.447Z,76.42
2019-01-30T02:29:40.887Z,76.23
2019-01-30T02:30:47.989Z,76.2
2019-01-30T02:31:41.812Z,76.29
2019-01-30T02:32:41.173Z,76.38
2019-01-30T02:33:41.485Z,76.12
2019-01-30T02:34:41.772Z,76.13
2019-01-30T02:35:40.929Z,76.15
2019-01-30T02:36:41.096Z,75.96
2019-01-30T02:37:41.069Z,76.05
2019-01-30T02:38:41.205Z,75.96
2019-01-30T02:39:42.689Z,75.84
2019-01-30T02:40:41.232Z,75.97
2019-01-30T02:41:40.903Z,76.22
2019-01-30T02:42:41.347Z,76.44
2019-01-30T02:43:40.986Z,76.48
2019-01-30T02:44:41.077Z,75.86
2019-01-30T02:45:41.163Z,75.89
2019-01-30T02:46:41.027Z,75.95
2019-01-30T02:47:40.942Z,75.86
2019-01-30T02:48:41.164Z,75.77
2019-01-30T02:49:41.438Z,75.87
2019-01-30T02:50:41.048Z,75.92
2019-01-30T02:51:40.892Z,75.81
2019-01-30T02:52:41.020Z,76
2019-01-30T02:53:40.978Z,75.89
2019-01-30T02:54:40.877Z,76.13
2019-01-30T02:55:42.674Z,76.19
2019-01-30T02:56:41.235Z,76.11
2019-01-30T02:57:41.157Z,75.86
2019-01-30T02:58:40.936Z,76.01
2019-01-30T02:59:41.247Z,75.99
2019-01-30T03:00:41.143Z,76.13
2019-01-30T03:01:40.867Z,76.04
2019-01-30T03:02:41.282Z,75.9
2019-01-30T03:03:41.060Z,75.93
2019-01-30T03:04:41.189Z,75.71
2019-01-30T03:05:40.982Z,75.75
2019-01-30T03:06:40.844Z,75.94
2019-01-30T03:07:41.106Z,75.8
2019-01-30T03:08:41.331Z,75.37
2019-01-30T03:09:41.554Z,75.21
2019-01-30T03:10:41.140Z,75.57
2019-01-30T03:11:41.140Z,75.83
2019-01-30T03:12:41.350Z,75.9
2019-01-30T03:13:41.045Z,75.74
2019-01-30T03:14:40.918Z,75.53
2019-01-30T03:15:40.859Z,75.34
2019-01-30T03:16:40.966Z,75.57
2019-01-30T03:17:41.359Z,75.5
2019-01-30T03:18:40.989Z,75.39
2019-01-30T03:19:40.830Z,75.33
2019-01-30T03:20:40.817Z,75.33
2019-01-30T03:21:41.257Z,74.96
2019-01-30T03:22:41.372Z,75.14
2019-01-30T03:23:41.243Z,74.97
2019-01-30T03:24:41.213Z,75.16
2019-01-30T03:25:41.447Z,75.12
2019-01-30T03:26:41.124Z,74.89
2019-01-30T03:27:41.678Z,75.02
2019-01-30T03:28:41.251Z,75.24
2019-01-30T03:29:41.088Z,74.92
2019-01-30T03:30:40.795Z,75.05
2019-01-30T03:31:40.865Z,75.11
2019-01-30T03:32:40.853Z,75
2019-01-30T03:33:40.838Z,75.32
2019-01-30T03:34:41.182Z,74.92
2019-01-30T03:35:40.877Z,74.82
2019-01-30T03:36:41.095Z,74.9
2019-01-30T03:37:41.064Z,75.11
2019-01-30T03:38:40.979Z,75.05
2019-01-30T03:39:40.835Z,74.89
2019-01-30T03:40:41.242Z,74.92
2019-01-30T03:41:40.864Z,75.05
2019-01-30T03:42:40.946Z,74.85
2019-01-30T03:43:40.879Z,74.98
2019-01-30T03:44:41.058Z,75.01
2019-01-30T03:45:40.848Z,75.26
2019-01-30T03:46:40.866Z,74.83
2019-01-30T03:47:40.802Z,74.79
2019-01-30T03:48:40.766Z,75.11
2019-01-30T03:49:41.082Z,75.12
2019-01-30T03:50:40.937Z,75.01
2019-01-30T03:51:40.785Z,74.74
2019-01-30T03:52:40.763Z,74.66
2019-01-30T03:53:40.837Z,74.87
2019-01-30T03:54:40.798Z,74.94
2019-01-30T03:55:40.868Z,74.6
2019-01-30T03:56:40.977Z,74.37
2019-01-30T03:57:40.945Z,74.8
2019-01-30T03:58:41.266Z,74.79
2019-01-30T03:59:41.165Z,74.83
2019-01-30T04:00:41.058Z,75.04
2019-01-30T04:01:40.814Z,74.87
2019-01-30T04:02:40.908Z,75.3
2019-01-30T04:03:41.089Z,75.27
2019-01-30T04:04:41.350Z,75.2
2019-01-30T04:05:41.108Z,75.02
2019-01-30T04:06:41.086Z,75.08
2019-01-30T04:07:40.856Z,75.13
2019-01-30T04:08:40.752Z,75.11
2019-01-30T04:09:41.158Z,75.23
2019-01-30T04:10:41.030Z,75.29
2019-01-30T04:11:41.131Z,75.33
2019-01-30T04:12:40.753Z,75.34
2019-01-30T04:13:40.733Z,75.34
2019-01-30T04:14:40.774Z,75.31
2019-01-30T04:15:41.066Z,75.55
2019-01-30T04:16:41.476Z,75.63
2019-01-30T04:17:41.117Z,75.42
2019-01-30T04:18:40.866Z,75.48
2019-01-30T04:19:41.289Z,75.55
2019-01-30T04:20:40.834Z,75.69
2019-01-30T04:21:40.818Z,75.82
2019-01-30T04:22:41.007Z,76.02
2019-01-30T04:23:40.766Z,76.36
2019-01-30T04:24:41.016Z,76.5
2019-01-30T04:25:41.188Z,76.32
2019-01-30T04:26:40.866Z,76.47
2019-01-30T04:27:40.814Z,76.67
2019-01-30T04:28:41.138Z,76.75
2019-01-30T04:29:40.929Z,76.95
2019-01-30T04:30:40.845Z,76.62
2019-01-30T04:31:40.869Z,76.57
2019-01-30T04:32:41.081Z,76.55
2019-01-30T04:33:40.821Z,76.55
2019-01-30T04:34:41.248Z,76.28
2019-01-30T04:35:40.679Z,76.26
2019-01-30T04:36:40.851Z,76.34
2019-01-30T04:37:40.851Z,76.24
2019-01-30T04:38:40.692Z,76.37
2019-01-30T04:39:40.744Z,76.07
2019-01-30T04:40:40.956Z,76.09
2019-01-30T04:41:40.771Z,76.22
2019-01-30T04:42:41.137Z,75.93
2019-01-30T04:43:40.851Z,75.9
2019-01-30T04:44:40.717Z,76.16
2019-01-30T04:45:40.910Z,76.08
2019-01-30T04:46:41.067Z,75.87
2019-01-30T04:47:40.858Z,76.02
2019-01-30T04:48:40.704Z,75.98
2019-01-30T04:49:40.694Z,76.03
2019-01-30T04:50:40.931Z,75.74
2019-01-30T04:51:41.109Z,75.47
2019-01-30T04:52:40.687Z,75.76
2019-01-30T04:53:40.910Z,75.84
2019-01-30T04:54:41.129Z,76.01
2019-01-30T04:55:40.642Z,75.87
2019-01-30T04:56:40.655Z,75.8
2019-01-30T04:57:40.955Z,75.59
2019-01-30T04:58:40.887Z,75.47
2019-01-30T04:59:40.824Z,75.06
2019-01-30T05:00:41.690Z,75.26
2019-01-30T05:01:50.230Z,75.71
2019-01-30T05:02:41.032Z,75.63
2019-01-30T05:03:40.723Z,75.92
2019-01-30T05:04:40.833Z,75.77
2019-01-30T05:05:40.903Z,75.81
2019-01-30T05:06:40.715Z,75.82
2019-01-30T05:07:40.819Z,76.23
2019-01-30T05:08:40.788Z,76
2019-01-30T05:09:40.772Z,76.36
2019-01-30T05:10:40.814Z,76.36
2019-01-30T05:11:41.154Z,76.41
2019-01-30T05:12:40.679Z,76.91
2019-01-30T05:13:40.680Z,77
2019-01-30T05:14:40.638Z,77.03
2019-01-30T05:15:40.749Z,77.09
2019-01-30T05:16:40.703Z,76.94
2019-01-30T05:17:40.652Z,77.06
2019-01-30T05:18:40.820Z,77.26
2019-01-30T05:19:40.949Z,77.04
2019-01-30T05:20:40.659Z,77.08
2019-01-30T05:21:40.915Z,77.29
2019-01-30T05:22:41.157Z,77.14
2019-01-30T05:23:40.650Z,77.17
2019-01-30T05:24:40.710Z,77.13
2019-01-30T05:25:40.952Z,77.67
2019-01-30T05:26:40.832Z,77.47
2019-01-30T05:27:41.115Z,77.63
2019-01-30T05:28:40.668Z,77.66
2019-01-30T05:29:40.724Z,77.66
2019-01-30T05:30:41.495Z,77.69
2019-01-30T05:31:40.700Z,78.07
2019-01-30T05:32:40.587Z,78.23
2019-01-30T05:33:41.306Z,78.25
2019-01-30T05:34:40.656Z,78.57
2019-01-30T05:35:40.638Z,78.58
2019-01-30T05:36:40.676Z,78.79
2019-01-30T05:37:40.936Z,78.47
2019-01-30T05:38:40.805Z,78.6
2019-01-30T05:39:40.779Z,78.51
2019-01-30T05:40:41.244Z,78.34
2019-01-30T05:41:41.795Z,78.19
2019-01-30T05:42:41.758Z,78.38
2019-01-30T05:43:44.885Z,78.15
2019-01-30T05:44:42.084Z,78.16
2019-01-30T05:45:42.222Z,78.06
2019-01-30T05:46:42.087Z,77.98
2019-01-30T05:47:43.913Z,78.05
2019-01-30T05:48:40.846Z,78.26
2019-01-30T05:49:42.635Z,78.22
2019-01-30T05:50:40.642Z,78.15
2019-01-30T05:51:40.730Z,77.83
2019-01-30T05:52:40.620Z,77.99
2019-01-30T05:53:41.234Z,78.25
2019-01-30T05:54:41.119Z,78.13
2019-01-30T05:55:40.687Z,78.27
2019-01-30T05:56:40.684Z,77.98
2019-01-30T05:57:40.632Z,77.85
2019-01-30T05:58:40.749Z,78.05
2019-01-30T05:59:40.686Z,78.08
2019-01-30T06:00:41.007Z,78.12
2019-01-30T06:01:40.759Z,78
2019-01-30T06:02:40.615Z,78.06
2019-01-30T06:03:40.696Z,78.21
2019-01-30T06:04:40.590Z,78.39
2019-01-30T06:05:41.115Z,78.36
2019-01-30T06:06:40.908Z,78.19
2019-01-30T06:07:40.636Z,78.48
2019-01-30T06:08:40.890Z,78.38
2019-01-30T06:09:40.708Z,77.89
2019-01-30T06:10:40.849Z,78.13
2019-01-30T06:11:40.603Z,77.97
2019-01-30T06:12:41.672Z,77.7
2019-01-30T06:13:40.837Z,77.83
2019-01-30T06:14:40.711Z,77.73
2019-01-30T06:15:40.515Z,78.14
2019-01-30T06:16:40.547Z,78.01
2019-01-30T06:17:42.384Z,77.86
2019-01-30T06:18:40.791Z,77.41
2019-01-30T06:19:40.524Z,77.26
2019-01-30T06:20:40.677Z,77.34
2019-01-30T06:21:40.594Z,77.57
2019-01-30T06:22:41.233Z,77.24
2019-01-30T06:23:40.627Z,77.11
2019-01-30T06:24:41.040Z,77.22
2019-01-30T06:25:40.582Z,77.22
2019-01-30T06:26:40.581Z,77.35
2019-01-30T06:27:40.939Z,77.14
2019-01-30T06:28:41.221Z,77.31
2019-01-30T06:29:41.174Z,77.13
2019-01-30T06:30:40.521Z,77.02
2019-01-30T06:31:40.736Z,77.04
2019-01-30T06:32:40.768Z,77.12
2019-01-30T06:33:40.643Z,76.66
2019-01-30T06:34:40.585Z,77
2019-01-30T06:35:40.806Z,76.92
2019-01-30T06:36:40.578Z,76.99
2019-01-30T06:37:41.115Z,76.95
2019-01-30T06:38:40.939Z,76.88
2019-01-30T06:39:40.828Z,76.85
2019-01-30T06:40:40.999Z,76.92
2019-01-30T06:41:42.360Z,77.02
2019-01-30T06:42:40.745Z,77
2019-01-30T06:43:40.848Z,76.94
2019-01-30T06:44:40.601Z,77.18
2019-01-30T06:45:42.353Z,77.21
2019-01-30T06:46:41.197Z,77.07
2019-01-30T06:47:40.770Z,77.07
2019-01-30T06:48:40.595Z,77.22
2019-01-30T06:49:40.548Z,77.18
2019-01-30T06:50:43.990Z,76.89
2019-01-30T06:51:40.513Z,77.05
2019-01-30T06:52:40.583Z,76.82
2019-01-30T06:53:40.506Z,77.1
2019-01-30T06:54:41.331Z,77.05
2019-01-30T06:55:40.556Z,77
2019-01-30T06:56:40.481Z,76.9
2019-01-30T06:57:40.670Z,76.99
2019-01-30T06:58:40.770Z,77.16
2019-01-30T06:59:40.479Z,77.15
2019-01-30T07:00:40.489Z,77.1
2019-01-30T07:01:40.521Z,76.75
2019-01-30T07:02:41.097Z,77.06
2019-01-30T07:03:40.700Z,77.34
2019-01-30T07:04:40.531Z,77.27
2019-01-30T07:05:40.505Z,76.98
2019-01-30T07:06:40.807Z,77.15
2019-01-30T07:07:40.481Z,76.94
2019-01-30T07:08:40.866Z,77.07
2019-01-30T07:09:40.519Z,77.44
2019-01-30T07:10:40.497Z,77.57
2019-01-30T07:11:40.549Z,77.43
2019-01-30T07:12:40.567Z,77.49
2019-01-30T07:13:40.612Z,77.56
2019-01-30T07:14:40.528Z,77.85
2019-01-30T07:15:40.759Z,77.35
2019-01-30T07:16:40.442Z,77.31
2019-01-30T07:17:41.289Z,77.5
2019-01-30T07:18:40.495Z,77.38
2019-01-30T07:19:40.479Z,77.26
2019-01-30T07:20:40.496Z,77.16
2019-01-30T07:21:40.822Z,77.08
2019-01-30T07:22:40.504Z,76.69
2019-01-30T07:23:40.443Z,76.87
2019-01-30T07:24:41.038Z,76.65
2019-01-30T07:25:40.965Z,76.93
2019-01-30T07:26:40.572Z,77.15
2019-01-30T07:27:40.656Z,77.04
2019-01-30T07:28:40.456Z,77.11
2019-01-30T07:29:40.524Z,76.67
2019-01-30T07:30:40.505Z,76.69
2019-01-30T07:31:40.766Z,76.93
2019-01-30T07:32:42.686Z,76.67
2019-01-30T07:33:40.497Z,76.82
2019-01-30T07:34:40.428Z,76.94
2019-01-30T07:35:40.555Z,76.86
2019-01-30T07:36:40.573Z,76.8
2019-01-30T07:37:42.562Z,76.9
2019-01-30T07:38:41.501Z,77.27
2019-01-30T07:39:40.398Z,77.03
2019-01-30T07:40:42.268Z,76.96
2019-01-30T07:41:40.457Z,76.93
2019-01-30T07:42:40.755Z,76.99
2019-01-30T07:43:40.778Z,76.64
2019-01-30T07:44:51.341Z,76.36
2019-01-30T07:45:40.458Z,76.11
2019-01-30T07:46:40.774Z,76.07
2019-01-30T07:47:40.513Z,76.22
2019-01-30T07:48:40.496Z,76.35
2019-01-30T07:49:40.432Z,76.06
2019-01-30T07:50:40.811Z,75.64
2019-01-30T07:51:40.819Z,75.71
2019-01-30T07:52:40.508Z,76.26
2019-01-30T07:53:40.725Z,76.03
2019-01-30T07:54:40.559Z,76.12
2019-01-30T07:55:40.625Z,76.46
2019-01-30T07:56:40.496Z,76.17
2019-01-30T07:57:40.642Z,76.15
2019-01-30T07:58:40.428Z,75.83
2019-01-30T07:59:40.486Z,75.68
2019-01-30T08:00:40.374Z,75.71
2019-01-30T08:01:42.229Z,75.89
2019-01-30T08:02:53.931Z,76.2
2019-01-30T08:03:40.822Z,75.88
2019-01-30T08:04:40.792Z,75.87
2019-01-30T08:05:40.435Z,75.43
2019-01-30T08:06:41.637Z,75.09
2019-01-30T08:07:40.810Z,75.02
2019-01-30T08:08:40.800Z,74.96
2019-01-30T08:09:41.274Z,74.64
2019-01-30T08:10:40.428Z,74.52
2019-01-30T08:11:40.505Z,74.54
2019-01-30T08:12:40.767Z,74.49
2019-01-30T08:13:40.759Z,74.96
2019-01-30T08:14:40.754Z,74.93
2019-01-30T08:15:40.423Z,74.91
2019-01-30T08:16:40.571Z,74.82
2019-01-30T08:17:40.508Z,74.76
2019-01-30T08:18:40.910Z,75.03
2019-01-30T08:19:40.360Z,74.87
2019-01-30T08:20:40.489Z,74.8
2019-01-30T08:21:40.506Z,74.96
2019-01-30T08:22:42.327Z,74.65
2019-01-30T08:23:41.326Z,74.64
2019-01-30T08:24:41.307Z,74.55
2019-01-30T08:25:40.301Z,74.76
2019-01-30T08:26:40.984Z,75.12
2019-01-30T08:27:41.504Z,75.12
2019-01-30T08:28:41.061Z,74.99
2019-01-30T08:29:41.213Z,74.81
2019-01-30T08:30:40.917Z,74.26
2019-01-30T08:31:41.021Z,74.51
2019-01-30T08:32:41.948Z,74.72
2019-01-30T08:33:40.484Z,75.01
2019-01-30T08:34:40.352Z,74.77
2019-01-30T08:35:40.355Z,74.86
2019-01-30T08:36:40.469Z,74.9
2019-01-30T08:37:40.579Z,74.61
2019-01-30T08:38:40.482Z,74.62
2019-01-30T08:39:40.413Z,74.54
2019-01-30T08:40:40.371Z,74.52
2019-01-30T08:41:40.479Z,74.15
2019-01-30T08:42:40.442Z,74.11
2019-01-30T08:43:40.474Z,74.11
2019-01-30T08:44:47.498Z,73.94
2019-01-30T08:45:40.556Z,73.97
2019-01-30T08:46:40.324Z,73.92
2019-01-30T08:47:40.299Z,73.79
2019-01-30T08:48:40.548Z,73.67
2019-01-30T08:49:40.506Z,73.34
2019-01-30T08:50:40.398Z,73.64
2019-01-30T08:51:40.463Z,73.42
2019-01-30T08:52:41.824Z,73.43
2019-01-30T08:53:40.716Z,73.38
2019-01-30T08:54:40.297Z,73.55
2019-01-30T08:55:40.670Z,73.62
2019-01-30T08:56:53.482Z,73.62
2019-01-30T08:57:40.686Z,73.37
2019-01-30T08:58:40.304Z,73.37
2019-01-30T08:59:40.297Z,73.49
2019-01-30T09:00:40.326Z,73.34
2019-01-30T09:01:40.514Z,73.44
2019-01-30T09:02:40.570Z,73.42
2019-01-30T09:03:40.378Z,73.46
2019-01-30T09:04:40.389Z,73.27
2019-01-30T09:05:40.504Z,73.12
2019-01-30T09:06:40.402Z,72.99
2019-01-30T09:07:44.884Z,72.8
2019-01-30T09:08:40.366Z,73.04
2019-01-30T09:09:40.527Z,73.24
2019-01-30T09:10:40.353Z,72.86
2019-01-30T09:11:40.729Z,72.91
2019-01-30T09:12:40.550Z,73.1
2019-01-30T09:13:40.455Z,72.78
2019-01-30T09:14:40.462Z,72.53
2019-01-30T09:15:40.347Z,72.74
2019-01-30T09:16:40.310Z,72.63
2019-01-30T09:17:40.280Z,72.66
2019-01-30T09:18:40.590Z,72.38
2019-01-30T09:19:40.351Z,72.41
2019-01-30T09:20:40.299Z,72.34
2019-01-30T09:21:40.930Z,72.61
2019-01-30T09:22:40.272Z,72.3
2019-01-30T09:23:43.148Z,72.28
2019-01-30T09:24:40.277Z,72.09
2019-01-30T09:25:42.063Z,72.04
2019-01-30T09:26:40.651Z,72.2
2019-01-30T09:27:40.482Z,72.18
2019-01-30T09:28:40.271Z,72.41
2019-01-30T09:29:40.273Z,72.38
2019-01-30T09:30:40.432Z,72.18
2019-01-30T09:31:40.265Z,71.93
2019-01-30T09:32:40.741Z,71.73
2019-01-30T09:33:40.255Z,72.1
2019-01-30T09:34:40.539Z,72.02
2019-01-30T09:35:40.491Z,72.24
2019-01-30T09:36:40.524Z,72.15
2019-01-30T09:37:41.117Z,72.44
2019-01-30T09:38:40.990Z,72.31
2019-01-30T09:39:40.286Z,72.41
2019-01-30T09:40:40.670Z,72.14
2019-01-30T09:41:40.271Z,72.34
2019-01-30T09:42:40.276Z,72.42
2019-01-30T09:43:40.323Z,72.25
2019-01-30T09:44:40.644Z,72.16
2019-01-30T09:45:40.908Z,72.38
2019-01-30T09:46:40.446Z,72.43
2019-01-30T09:47:40.582Z,72.27
2019-01-30T09:48:40.599Z,72.43
2019-01-30T09:49:40.781Z,72.63
2019-01-30T09:50:40.259Z,72.38
2019-01-30T09:51:40.315Z,72.38
2019-01-30T09:52:41.098Z,72.69
2019-01-30T09:53:40.256Z,72.8
2019-01-30T09:54:40.361Z,72.8
2019-01-30T09:55:40.510Z,72.53
2019-01-30T09:56:40.716Z,72.72
2019-01-30T09:57:40.453Z,72.77
2019-01-30T09:58:40.215Z,72.82
2019-01-30T09:59:40.340Z,73.02
2019-01-30T10:00:40.202Z,73.08
2019-01-30T10:01:40.166Z,72.86
2019-01-30T10:02:40.412Z,73.06
2019-01-30T10:03:40.504Z,72.9
2019-01-30T10:04:40.366Z,72.9
2019-01-30T10:05:40.192Z,72.78
2019-01-30T10:06:40.395Z,72.81
2019-01-30T10:07:40.816Z,72.51
2019-01-30T10:08:40.289Z,72.6
2019-01-30T10:09:40.158Z,72.43
2019-01-30T10:10:40.479Z,72.19
2019-01-30T10:11:40.473Z,71.85
2019-01-30T10:12:40.328Z,71.9
2019-01-30T10:13:40.648Z,71.84
2019-01-30T10:14:41.064Z,71.9
2019-01-30T10:15:40.198Z,72.08
2019-01-30T10:16:40.409Z,72.07
2019-01-30T10:17:40.490Z,71.85
2019-01-30T10:18:40.242Z,71.63
2019-01-30T10:19:42.041Z,71.74
2019-01-30T10:20:40.230Z,71.75
2019-01-30T10:21:40.242Z,71.78
2019-01-30T10:22:40.240Z,71.69
2019-01-30T10:23:40.348Z,71.62
2019-01-30T10:25:40.349Z,71.49
2019-01-30T10:26:40.215Z,71.33
2019-01-30T10:27:40.279Z,71.65
2019-01-30T10:28:40.237Z,71.89
2019-01-30T10:29:40.549Z,71.86
2019-01-30T10:30:40.383Z,71.67
2019-01-30T10:31:40.258Z,71.28
2019-01-30T10:32:40.337Z,70.79
2019-01-30T10:33:47.037Z,70.94
2019-01-30T10:34:40.322Z,70.86
2019-01-30T10:35:40.211Z,70.79
2019-01-30T10:36:40.875Z,71.21
2019-01-30T10:37:40.851Z,71.24
2019-01-30T10:38:40.193Z,71.26
2019-01-30T10:39:40.134Z,70.97
2019-01-30T10:40:41.133Z,71.2
2019-01-30T10:41:41.061Z,71.25
2019-01-30T10:42:40.492Z,70.87
2019-01-30T10:43:40.183Z,70.92
2019-01-30T10:44:40.183Z,71.04
2019-01-30T10:45:40.685Z,70.82
2019-01-30T10:46:40.335Z,70.91
2019-01-30T10:47:40.689Z,70.97
2019-01-30T10:48:40.205Z,70.93
2019-01-30T10:49:40.588Z,70.94
2019-01-30T10:50:40.245Z,70.91
2019-01-30T10:51:40.226Z,70.91
2019-01-30T10:52:40.399Z,71.1
2019-01-30T10:53:40.342Z,71.27
2019-01-30T10:54:40.106Z,71.25
2019-01-30T10:55:40.144Z,71.04
2019-01-30T10:56:40.182Z,70.99
2019-01-30T10:57:40.118Z,70.91
2019-01-30T10:58:40.164Z,70.6
2019-01-30T10:59:40.133Z,70.56
2019-01-30T11:00:40.148Z,70.82
2019-01-30T11:01:40.229Z,71.08
2019-01-30T11:02:40.218Z,71.27
2019-01-30T11:03:40.049Z,71.16
2019-01-30T11:04:40.140Z,71.13
2019-01-30T11:05:40.120Z,71.1
2019-01-30T11:06:40.153Z,70.98
2019-01-30T11:07:40.058Z,71.06
2019-01-30T11:08:40.369Z,71.17
2019-01-30T11:09:40.113Z,71.29
2019-01-30T11:10:40.134Z,71.57
2019-01-30T11:11:40.162Z,71.57
2019-01-30T11:12:40.140Z,71.83
2019-01-30T11:13:40.870Z,71.87
2019-01-30T11:14:41.279Z,71.75
2019-01-30T11:15:40.249Z,71.92
2019-01-30T11:16:40.470Z,71.99
2019-01-30T11:17:40.362Z,72.23
2019-01-30T11:18:40.500Z,72.3
2019-01-30T11:19:40.151Z,72.09
2019-01-30T11:20:40.102Z,72.01
2019-01-30T11:21:40.600Z,71.97
2019-01-30T11:22:40.249Z,72.01
2019-01-30T11:23:40.325Z,72.17
2019-01-30T11:24:40.218Z,72.36
2019-01-30T11:25:40.163Z,72.46
2019-01-30T11:26:40.513Z,71.96
2019-01-30T11:27:40.129Z,71.74
2019-01-30T11:28:40.230Z,71.67
2019-01-30T11:29:40.184Z,71.63
2019-01-30T11:30:40.984Z,71.8
2019-01-30T11:31:41.366Z,71.73
2019-01-30T11:32:40.111Z,71.68
2019-01-30T11:33:40.865Z,71.69
2019-01-30T11:34:40.132Z,71.43
2019-01-30T11:35:40.152Z,71.2
2019-01-30T11:36:40.819Z,71.25
2019-01-30T11:37:41.030Z,71.26
2019-01-30T11:38:40.309Z,71.38
2019-01-30T11:39:41.096Z,71.1
2019-01-30T11:40:40.554Z,71.01
2019-01-30T11:41:41.282Z,70.94
2019-01-30T11:42:40.091Z,70.78
2019-01-30T11:43:41.187Z,71.02
2019-01-30T11:44:40.185Z,71.18
2019-01-30T11:45:40.393Z,70.96
2019-01-30T11:46:40.366Z,70.79
2019-01-30T11:47:40.119Z,71.17
2019-01-30T11:48:40.381Z,71.36
2019-01-30T11:49:40.283Z,71.66
2019-01-30T11:50:40.312Z,71.96
2019-01-30T11:51:40.047Z,72.08
2019-01-30T11:52:40.924Z,72.23
2019-01-30T11:53:40.326Z,72.41
2019-01-30T11:54:40.835Z,72.85
2019-01-30T11:55:40.525Z,73.21
2019-01-30T11:56:41.270Z,73.34
2019-01-30T11:57:40.092Z,73.57
2019-01-30T11:58:40.144Z,73.79
2019-01-30T11:59:40.357Z,73.98
2019-01-30T12:00:40.296Z,74.19
2019-01-30T12:01:40.684Z,74.4
2019-01-30T12:02:48.702Z,74.54
2019-01-30T12:03:40.057Z,74.6
2019-01-30T12:04:40.377Z,74.79
2019-01-30T12:05:40.456Z,74.82
2019-01-30T12:06:40.208Z,74.93
2019-01-30T12:07:40.307Z,75.33
2019-01-30T12:08:40.208Z,75.39
2019-01-30T12:09:40.320Z,75.49
2019-01-30T12:10:40.070Z,75.58
2019-01-30T12:11:40.004Z,75.88
2019-01-30T12:12:40.343Z,75.81
2019-01-30T12:13:40.351Z,75.85
2019-01-30T12:14:40.050Z,75.98
2019-01-30T12:15:40.152Z,76.25
2019-01-30T12:16:40.376Z,76.41
2019-01-30T12:17:40.264Z,75.44
2019-01-30T12:18:40.399Z,75.59
2019-01-30T12:19:40.137Z,75.91
2019-01-30T12:20:40.162Z,75.8
2019-01-30T12:21:40.155Z,75.92
2019-01-30T12:22:40.103Z,76.08
2019-01-30T12:23:40.094Z,76.25
2019-01-30T12:24:40.240Z,76.57
2019-01-30T12:25:40.177Z,76.44
2019-01-30T12:26:40.229Z,76.39
2019-01-30T12:27:40.234Z,76.33
2019-01-30T12:28:40.067Z,75.72
2019-01-30T12:29:40.410Z,75.48
2019-01-30T12:30:40.018Z,75.69
2019-01-30T12:31:40.367Z,75.85
2019-01-30T12:32:40.020Z,75.48
2019-01-30T12:33:40.409Z,75.41
2019-01-30T12:34:40.073Z,74.94
2019-01-30T12:35:40.391Z,75.1
2019-01-30T12:36:40.012Z,75.33
2019-01-30T12:37:40.458Z,74.9
2019-01-30T12:38:40.001Z,74.63
2019-01-30T12:39:40.123Z,74.8
2019-01-30T12:40:40.013Z,75.06
2019-01-30T12:41:40.905Z,75.28
2019-01-30T12:42:40.072Z,74.81
2019-01-30T12:43:40.348Z,74.37
2019-01-30T12:44:39.967Z,73.89
2019-01-30T12:45:40.268Z,74.24
2019-01-30T12:46:39.993Z,74.57
2019-01-30T12:47:40.199Z,74.34
2019-01-30T12:48:40.291Z,74.63
2019-01-30T12:49:40.185Z,74.57
2019-01-30T12:50:40.186Z,74.39
2019-01-30T12:51:40.142Z,74.21
2019-01-30T12:52:40.509Z,74.31
2019-01-30T12:53:40.042Z,74.28
2019-01-30T12:54:40.217Z,74.03
2019-01-30T12:55:39.915Z,74.4
2019-01-30T12:56:40.031Z,74.65